createdAt,value
2018-08-16T00:00:43.538Z,65.08
2018-08-16T00:03:09.849Z,64.99
2018-08-16T00:05:36.200Z,65.35
2018-08-16T00:08:02.542Z,65.59
2018-08-16T00:10:28.857Z,65.72
2018-08-16T00:12:55.222Z,66.37
2018-08-16T00:15:21.568Z,66.93
2018-08-16T00:17:47.886Z,66.90
2018-08-16T00:20:14.202Z,66.63
2018-08-16T00:22:40.521Z,66.19
2018-08-16T00:25:07.687Z,66.25
2018-08-16T00:27:34.028Z,66.40
2018-08-16T00:30:00.341Z,66.80
2018-08-16T00:32:26.651Z,67.00
2018-08-16T00:34:53.016Z,67.15
2018-08-16T00:37:19.356Z,67.07
2018-08-16T00:39:45.694Z,67.32
2018-08-16T00:42:12.046Z,67.64
2018-08-16T00:44:38.393Z,68.55
2018-08-16T00:47:04.772Z,68.74
2018-08-16T00:49:31.100Z,68.77
2018-08-16T00:51:57.447Z,68.51
2018-08-16T00:54:23.820Z,68.58
2018-08-16T00:56:50.161Z,68.98
2018-08-16T00:59:16.467Z,69.56
2018-08-16T01:01:42.780Z,69.76
2018-08-16T01:04:09.089Z,69.46
2018-08-16T01:06:35.404Z,69.44
2018-08-16T01:09:01.724Z,69.39
2018-08-16T01:11:28.028Z,69.68
2018-08-16T01:13:54.356Z,70.16
2018-08-16T01:16:20.663Z,70.45
2018-08-16T01:18:46.967Z,70.47
2018-08-16T01:21:13.275Z,70.36
2018-08-16T01:23:39.583Z,70.20
2018-08-16T01:26:05.893Z,70.72
2018-08-16T01:28:32.198Z,70.52
2018-08-16T01:30:58.511Z,70.32
2018-08-16T01:33:24.815Z,70.61
2018-08-16T01:35:51.127Z,71.01
2018-08-16T01:38:17.484Z,71.48
2018-08-16T01:40:43.794Z,71.65
2018-08-16T01:43:10.099Z,71.63
2018-08-16T01:45:36.410Z,71.17
2018-08-16T01:48:02.720Z,71.19
2018-08-16T01:50:29.029Z,70.96
2018-08-16T01:52:55.393Z,70.53
2018-08-16T01:55:21.712Z,70.21
2018-08-16T01:57:48.021Z,70.44
2018-08-16T02:00:14.329Z,70.70
2018-08-16T02:02:40.645Z,71.28
2018-08-16T02:05:06.970Z,71.45
2018-08-16T02:07:33.277Z,71.18
2018-08-16T02:09:59.587Z,70.46
2018-08-16T02:12:25.903Z,69.98
2018-08-16T02:14:52.208Z,69.15
2018-08-16T02:17:18.520Z,69.25
2018-08-16T02:19:44.871Z,69.49
2018-08-16T02:22:11.182Z,69.36
2018-08-16T02:24:37.532Z,69.32
2018-08-16T02:27:03.883Z,69.60
2018-08-16T02:29:30.187Z,69.44
2018-08-16T02:31:56.520Z,69.37
2018-08-16T02:34:22.872Z,69.30
2018-08-16T02:36:49.190Z,69.32
2018-08-16T02:39:15.494Z,69.17
2018-08-16T02:41:41.848Z,69.08
2018-08-16T02:44:08.151Z,69.07
2018-08-16T02:46:34.456Z,69.20
2018-08-16T02:49:00.769Z,69.13
2018-08-16T02:51:27.078Z,69.23
2018-08-16T02:53:53.387Z,69.31
2018-08-16T02:56:19.696Z,69.55
2018-08-16T02:58:46.003Z,69.85
2018-08-16T03:01:12.311Z,70.23
2018-08-16T03:03:38.623Z,70.70
2018-08-16T03:06:04.949Z,70.72
2018-08-16T03:08:31.241Z,70.55
2018-08-16T03:10:57.547Z,70.22
2018-08-16T03:13:23.855Z,70.33
2018-08-16T03:15:50.175Z,70.12
2018-08-16T03:18:16.490Z,70.16
2018-08-16T03:20:42.810Z,70.50
2018-08-16T03:23:09.124Z,70.44
2018-08-16T03:25:35.432Z,70.75
2018-08-16T03:28:01.751Z,71.13
2018-08-16T03:30:28.057Z,71.60
2018-08-16T03:32:54.412Z,72.15
2018-08-16T03:35:20.811Z,72.45
2018-08-16T03:37:47.019Z,72.79
2018-08-16T03:40:13.331Z,72.90
2018-08-16T03:42:39.644Z,73.03
2018-08-16T03:45:05.959Z,73.04
2018-08-16T03:47:32.274Z,73.32
2018-08-16T03:49:58.585Z,73.41
2018-08-16T03:52:24.891Z,73.70
2018-08-16T03:54:51.203Z,74.07
2018-08-16T03:57:17.516Z,74.26
2018-08-16T03:59:43.823Z,74.27
2018-08-16T04:02:10.134Z,74.32
2018-08-16T04:04:36.448Z,74.33
2018-08-16T04:07:02.751Z,74.17
2018-08-16T04:09:29.062Z,74.39
2018-08-16T04:11:55.373Z,74.19
2018-08-16T04:14:21.682Z,74.28
2018-08-16T04:16:47.997Z,74.62
2018-08-16T04:19:14.302Z,74.81
2018-08-16T04:21:40.614Z,74.77
2018-08-16T04:24:06.956Z,74.95
2018-08-16T04:26:33.258Z,75.21
2018-08-16T04:28:59.621Z,75.18
2018-08-16T04:31:25.873Z,75.14
2018-08-16T04:33:52.187Z,75.01
2018-08-16T04:36:18.539Z,74.90
2018-08-16T04:38:44.852Z,75.09
2018-08-16T04:41:11.166Z,75.20
2018-08-16T04:43:37.477Z,79.56
2018-08-16T04:46:03.788Z,79.20
2018-08-16T04:48:30.100Z,77.23
2018-08-16T04:50:56.456Z,77.38
2018-08-16T04:53:22.768Z,76.12
2018-08-16T04:55:49.078Z,74.40
2018-08-16T04:58:15.389Z,73.12
2018-08-16T05:00:41.740Z,71.74
2018-08-16T05:03:08.052Z,70.08
2018-08-16T05:05:34.358Z,68.75
2018-08-16T05:08:00.672Z,67.55
2018-08-16T05:10:27.028Z,66.44
2018-08-16T05:12:53.340Z,67.10
2018-08-16T05:15:19.654Z,68.00
2018-08-16T05:17:45.966Z,68.56
2018-08-16T05:20:12.324Z,69.44
2018-08-16T05:22:38.590Z,70.27
2018-08-16T05:25:04.896Z,70.71
2018-08-16T05:27:31.221Z,72.81
2018-08-16T05:29:57.522Z,73.69
2018-08-16T05:32:23.895Z,77.02
2018-08-16T05:34:50.222Z,77.44
2018-08-16T05:37:16.537Z,78.41
2018-08-16T05:39:42.852Z,81.39
2018-08-16T05:42:09.157Z,80.98
2018-08-16T05:44:35.487Z,82.26
2018-08-16T05:47:01.810Z,81.43
2018-08-16T05:49:28.120Z,80.80
2018-08-16T05:51:54.429Z,82.26
2018-08-16T05:54:20.735Z,82.12
2018-08-16T05:56:47.061Z,81.39
2018-08-16T05:59:13.388Z,81.04
2018-08-16T06:01:39.684Z,79.24
2018-08-16T06:04:05.997Z,78.22
2018-08-16T06:06:32.319Z,77.25
2018-08-16T06:08:58.626Z,78.07
2018-08-16T06:11:24.939Z,78.70
2018-08-16T06:13:51.256Z,78.57
2018-08-16T06:16:17.565Z,76.33
2018-08-16T06:18:43.881Z,74.95
2018-08-16T06:21:10.203Z,75.30
2018-08-16T06:23:36.516Z,72.64
2018-08-16T06:26:02.829Z,73.36
2018-08-16T06:28:29.176Z,70.71
2018-08-16T06:30:55.488Z,70.39
2018-08-16T06:33:21.786Z,69.33
2018-08-16T06:35:48.107Z,68.17
2018-08-16T06:38:14.423Z,67.82
2018-08-16T06:40:40.743Z,67.75
2018-08-16T06:43:07.059Z,67.25
2018-08-16T06:45:33.371Z,66.24
2018-08-16T06:47:59.688Z,65.57
2018-08-16T06:50:25.995Z,64.50
2018-08-16T06:52:52.299Z,64.35
2018-08-16T06:55:18.608Z,63.67
2018-08-16T06:57:44.927Z,63.72
2018-08-16T07:00:11.277Z,63.25
2018-08-16T07:02:37.589Z,62.74
2018-08-16T07:05:03.908Z,61.42
2018-08-16T07:07:30.215Z,61.14
2018-08-16T07:09:56.519Z,60.21
2018-08-16T07:12:22.841Z,60.00
2018-08-16T07:14:49.139Z,59.86
2018-08-16T07:17:15.449Z,59.13
2018-08-16T07:19:41.768Z,58.77
2018-08-16T07:22:08.083Z,58.87
2018-08-16T07:24:34.433Z,58.58
2018-08-16T07:27:00.705Z,57.90
2018-08-16T07:29:27.012Z,56.98
2018-08-16T07:31:53.328Z,56.27
2018-08-16T07:34:19.638Z,56.87
2018-08-16T07:36:45.956Z,56.64
2018-08-16T07:39:12.264Z,55.30
2018-08-16T07:41:38.615Z,55.30
2018-08-16T07:44:04.919Z,54.72
2018-08-16T07:46:31.357Z,55.15
2018-08-16T07:48:57.576Z,54.56
2018-08-16T07:51:24.049Z,54.44
2018-08-16T07:53:50.194Z,54.09
2018-08-16T07:56:16.510Z,54.02
2018-08-16T07:58:42.820Z,54.59
2018-08-16T08:01:09.123Z,53.51
2018-08-16T08:03:35.444Z,53.04
2018-08-16T08:06:01.752Z,52.62
2018-08-16T08:08:28.103Z,53.86
2018-08-16T08:10:54.408Z,53.00
2018-08-16T08:13:20.710Z,52.78
2018-08-16T08:15:47.021Z,52.80
2018-08-16T08:18:13.384Z,51.90
2018-08-16T08:20:39.694Z,51.80
2018-08-16T08:23:06.000Z,51.99
2018-08-16T08:25:32.363Z,50.25
2018-08-16T08:27:58.615Z,49.98
2018-08-16T08:30:24.924Z,50.09
2018-08-16T08:32:51.230Z,49.68
2018-08-16T08:35:17.540Z,48.57
2018-08-16T08:37:43.853Z,48.82
2018-08-16T08:40:10.164Z,49.30
2018-08-16T08:42:36.471Z,47.47
2018-08-16T08:45:02.784Z,47.47
2018-08-16T08:47:29.092Z,47.88
2018-08-16T08:49:55.399Z,48.14
2018-08-16T08:52:21.708Z,48.29
2018-08-16T08:54:48.022Z,48.46
2018-08-16T08:57:14.368Z,47.60
2018-08-16T08:59:40.681Z,47.13
2018-08-16T09:02:06.995Z,46.69
2018-08-16T09:04:33.313Z,46.06
2018-08-16T09:06:59.661Z,43.04
2018-08-16T09:09:25.929Z,42.56
2018-08-16T09:11:52.252Z,42.80
2018-08-16T09:14:18.576Z,43.21
2018-08-16T09:16:44.888Z,43.13
2018-08-16T09:19:11.196Z,41.54
2018-08-16T09:21:37.567Z,42.16
2018-08-16T09:24:04.002Z,41.33
2018-08-16T09:26:30.252Z,41.17
2018-08-16T09:28:56.576Z,40.99
2018-08-16T09:31:22.985Z,41.65
2018-08-16T09:33:49.240Z,42.17
2018-08-16T09:36:15.547Z,42.23
2018-08-16T09:38:41.855Z,41.45
2018-08-16T09:41:08.208Z,41.76
2018-08-16T09:43:34.517Z,42.95
2018-08-16T09:46:00.828Z,40.16
2018-08-16T09:48:27.135Z,39.56
2018-08-16T09:50:53.446Z,39.60
2018-08-16T09:53:19.758Z,39.54
2018-08-16T09:55:46.076Z,39.44
2018-08-16T09:58:12.385Z,39.97
2018-08-16T10:00:38.698Z,39.75
2018-08-16T10:03:05.011Z,39.11
2018-08-16T10:05:31.319Z,37.42
2018-08-16T10:07:57.635Z,36.81
2018-08-16T10:10:23.939Z,35.77
2018-08-16T10:12:50.260Z,36.69
2018-08-16T10:15:16.569Z,37.33
2018-08-16T10:17:42.877Z,38.13
2018-08-16T10:20:09.184Z,38.13
2018-08-16T10:22:35.531Z,38.02
2018-08-16T10:25:01.841Z,37.83
2018-08-16T10:27:28.217Z,36.04
2018-08-16T10:29:54.526Z,35.70
2018-08-16T10:32:20.844Z,35.92
2018-08-16T10:34:47.159Z,36.09
2018-08-16T10:37:13.557Z,36.33
2018-08-16T10:39:39.793Z,34.37
2018-08-16T10:42:06.097Z,34.56
2018-08-16T10:44:32.458Z,34.73
2018-08-16T10:46:58.731Z,34.60
2018-08-16T10:49:25.052Z,34.83
2018-08-16T10:51:51.369Z,34.82
2018-08-16T10:54:17.690Z,34.96
2018-08-16T10:56:44.011Z,35.03
2018-08-16T10:59:10.321Z,35.25
2018-08-16T11:01:36.631Z,35.83
2018-08-16T11:04:02.936Z,35.90
2018-08-16T11:06:29.265Z,36.36
2018-08-16T11:08:55.577Z,36.55
2018-08-16T11:11:21.888Z,35.50
2018-08-16T11:13:48.234Z,36.06
2018-08-16T11:16:14.545Z,35.58
2018-08-16T11:18:40.869Z,35.71
2018-08-16T11:21:07.229Z,35.02
2018-08-16T11:23:33.545Z,34.51
2018-08-16T11:25:59.862Z,35.18
2018-08-16T11:28:26.179Z,34.09
2018-08-16T11:30:52.490Z,34.83
2018-08-16T11:33:18.805Z,35.07
2018-08-16T11:35:45.120Z,35.81
2018-08-16T11:38:11.431Z,36.54
2018-08-16T11:40:37.809Z,37.23
2018-08-16T11:43:04.060Z,37.84
2018-08-16T11:45:30.366Z,38.06
2018-08-16T11:47:56.678Z,38.55
2018-08-16T11:50:23.006Z,38.64
2018-08-16T11:52:49.325Z,38.60
2018-08-16T11:55:15.647Z,38.46
2018-08-16T11:57:41.951Z,38.02
2018-08-16T12:00:08.301Z,37.98
2018-08-16T12:02:34.615Z,38.41
2018-08-16T12:05:00.925Z,39.19
2018-08-16T12:07:27.240Z,39.01
2018-08-16T12:09:53.600Z,39.02
2018-08-16T12:12:19.961Z,39.25
2018-08-16T12:14:46.331Z,39.50
2018-08-16T12:17:12.601Z,39.46
2018-08-16T12:19:38.927Z,39.81
2018-08-16T12:22:05.243Z,40.20
2018-08-16T12:24:31.553Z,40.35
2018-08-16T12:26:57.875Z,40.45
2018-08-16T12:29:24.191Z,39.31
2018-08-16T12:31:50.509Z,39.26
2018-08-16T12:34:16.820Z,39.03
2018-08-16T12:36:43.127Z,39.46
2018-08-16T12:39:09.440Z,39.51
2018-08-16T12:41:35.750Z,39.76
2018-08-16T12:44:02.059Z,39.87
2018-08-16T12:46:28.372Z,40.18
2018-08-16T12:48:54.687Z,39.77
2018-08-16T12:51:21.000Z,39.75
2018-08-16T12:53:47.314Z,39.69
2018-08-16T12:56:13.634Z,40.11
2018-08-16T12:58:39.947Z,40.29
2018-08-16T13:01:06.260Z,39.88
2018-08-16T13:03:32.575Z,39.92
2018-08-16T13:05:58.881Z,38.76
2018-08-16T13:08:25.202Z,39.21
2018-08-16T13:10:51.522Z,38.90
2018-08-16T13:13:17.846Z,39.50
2018-08-16T13:15:44.174Z,39.86
2018-08-16T13:18:10.493Z,40.41
2018-08-16T13:20:36.828Z,40.10
2018-08-16T13:23:03.136Z,40.19
2018-08-16T13:25:29.446Z,40.71
2018-08-16T13:27:55.767Z,40.65
2018-08-16T13:30:22.131Z,40.28
2018-08-16T13:32:48.469Z,40.16
2018-08-16T13:35:14.821Z,39.82
2018-08-16T13:37:41.138Z,39.41
2018-08-16T13:40:07.459Z,40.40
2018-08-16T13:42:33.792Z,40.26
2018-08-16T13:45:00.103Z,40.38
2018-08-16T13:47:26.417Z,39.78
2018-08-16T13:49:52.730Z,40.08
2018-08-16T13:52:19.050Z,40.32
2018-08-16T13:54:45.418Z,40.96
2018-08-16T13:57:11.725Z,40.96
2018-08-16T13:59:38.039Z,40.24
2018-08-16T14:02:04.355Z,38.13
2018-08-16T14:04:30.684Z,37.83
2018-08-16T14:06:57.005Z,38.45
2018-08-16T14:09:23.331Z,39.09
2018-08-16T14:11:49.645Z,39.80
2018-08-16T14:14:15.956Z,40.58
2018-08-16T14:16:42.278Z,40.75
2018-08-16T14:19:08.596Z,40.34
2018-08-16T14:21:34.924Z,40.88
2018-08-16T14:24:01.233Z,40.51
2018-08-16T14:26:27.551Z,40.56
2018-08-16T14:28:53.880Z,40.38
2018-08-16T14:31:20.198Z,41.04
2018-08-16T14:33:46.514Z,41.19
2018-08-16T14:36:12.823Z,41.81
2018-08-16T14:38:39.183Z,41.07
2018-08-16T14:41:05.477Z,40.23
2018-08-16T14:43:31.797Z,41.02
2018-08-16T14:45:58.110Z,41.38
2018-08-16T14:48:24.420Z,42.33
2018-08-16T14:50:50.737Z,42.07
2018-08-16T14:53:17.048Z,41.70
2018-08-16T14:55:43.396Z,41.92
2018-08-16T14:58:09.718Z,42.23
2018-08-16T15:00:36.024Z,43.18
2018-08-16T15:03:02.341Z,43.83
2018-08-16T15:05:28.658Z,43.36
2018-08-16T15:07:54.972Z,43.94
2018-08-16T15:10:21.289Z,43.87
2018-08-16T15:12:47.618Z,43.73
2018-08-16T15:15:13.935Z,43.77
2018-08-16T15:17:40.243Z,44.42
2018-08-16T15:20:06.563Z,44.56
2018-08-16T15:22:32.871Z,44.21
2018-08-16T15:24:59.199Z,44.28
2018-08-16T15:27:25.511Z,44.58
2018-08-16T15:29:51.807Z,44.34
2018-08-16T15:32:18.226Z,44.19
2018-08-16T15:34:44.439Z,43.84
2018-08-16T15:37:10.758Z,44.46
2018-08-16T15:39:37.145Z,44.58
2018-08-16T15:42:03.399Z,44.03
2018-08-16T15:44:29.826Z,43.21
2018-08-16T15:46:56.090Z,43.98
2018-08-16T15:49:22.395Z,44.20
2018-08-16T15:51:48.710Z,44.20
2018-08-16T15:54:15.029Z,43.79
2018-08-16T15:56:41.337Z,44.27
2018-08-16T15:59:07.713Z,44.36
2018-08-16T16:01:33.973Z,44.31
2018-08-16T16:04:00.327Z,44.09
2018-08-16T16:06:26.687Z,44.28
2018-08-16T16:08:53.022Z,44.14
2018-08-16T16:11:19.337Z,43.86
2018-08-16T16:13:45.660Z,44.77
2018-08-16T16:16:11.990Z,44.77
2018-08-16T16:18:38.296Z,44.73
2018-08-16T16:21:04.611Z,44.26
2018-08-16T16:23:30.917Z,44.53
2018-08-16T16:25:57.230Z,44.29
2018-08-16T16:28:23.543Z,45.00
2018-08-16T16:30:50.000Z,44.78
2018-08-16T16:33:16.233Z,45.08
2018-08-16T16:35:42.541Z,44.88
2018-08-16T16:38:08.853Z,45.66
2018-08-16T16:40:35.218Z,45.58
2018-08-16T16:43:01.527Z,45.91
2018-08-16T16:45:27.845Z,45.72
2018-08-16T16:47:54.163Z,46.09
2018-08-16T16:50:20.477Z,44.92
2018-08-16T16:52:46.799Z,45.80
2018-08-16T16:55:13.113Z,45.65
2018-08-16T16:57:39.469Z,45.53
2018-08-16T17:00:05.819Z,45.48
2018-08-16T17:02:32.141Z,45.92
2018-08-16T17:04:58.480Z,45.44
2018-08-16T17:07:24.850Z,44.90
2018-08-16T17:09:51.104Z,44.64
2018-08-16T17:12:17.419Z,44.57
2018-08-16T17:14:43.744Z,45.86
2018-08-16T17:17:10.059Z,45.31
2018-08-16T17:19:36.368Z,45.30
2018-08-16T17:22:02.766Z,46.39
2018-08-16T17:24:29.122Z,44.00
2018-08-16T17:26:55.453Z,43.33
2018-08-16T17:29:21.765Z,45.30
2018-08-16T17:31:48.079Z,44.71
2018-08-16T17:34:14.392Z,44.85
2018-08-16T17:36:40.771Z,44.70
2018-08-16T17:39:09.483Z,45.23
2018-08-16T17:41:35.791Z,45.26
2018-08-16T17:44:02.113Z,44.81
2018-08-16T17:46:28.418Z,44.71
2018-08-16T17:48:54.733Z,43.94
2018-08-16T17:51:21.047Z,44.41
2018-08-16T17:53:47.365Z,44.09
2018-08-16T17:56:13.678Z,43.54
2018-08-16T17:58:39.990Z,43.61
2018-08-16T18:01:06.301Z,44.31
2018-08-16T18:03:32.614Z,44.67
2018-08-16T18:05:58.960Z,43.95
2018-08-16T18:08:25.275Z,44.73
2018-08-16T18:10:51.580Z,45.07
2018-08-16T18:13:17.888Z,44.50
2018-08-16T18:15:44.194Z,43.66
2018-08-16T18:18:10.509Z,44.69
2018-08-16T18:20:36.823Z,43.64
2018-08-16T18:23:03.142Z,44.53
2018-08-16T18:25:29.449Z,44.53
2018-08-16T18:27:55.769Z,44.89
2018-08-16T18:30:22.084Z,44.96
2018-08-16T18:32:48.392Z,45.30
2018-08-16T18:35:14.715Z,45.32
2018-08-16T18:37:41.057Z,45.29
2018-08-16T18:40:07.373Z,45.16
2018-08-16T18:42:33.697Z,45.80
2018-08-16T18:44:59.998Z,45.45
2018-08-16T18:47:26.317Z,45.56
2018-08-16T18:49:52.626Z,44.58
2018-08-16T18:52:18.933Z,45.38
2018-08-16T18:54:45.249Z,45.39
2018-08-16T18:57:11.563Z,45.73
2018-08-16T18:59:37.894Z,45.56
2018-08-16T19:02:04.224Z,45.76
2018-08-16T19:04:30.545Z,45.49
2018-08-16T19:06:56.910Z,45.60
2018-08-16T19:09:23.222Z,45.67
2018-08-16T19:11:49.547Z,46.12
2018-08-16T19:14:15.873Z,46.44
2018-08-16T19:16:42.194Z,46.53
2018-08-16T19:19:08.504Z,46.38
2018-08-16T19:21:34.816Z,46.83
2018-08-16T19:24:01.151Z,47.37
2018-08-16T19:26:27.465Z,47.27
2018-08-16T19:28:53.787Z,47.36
2018-08-16T19:31:20.096Z,48.02
2018-08-16T19:33:46.449Z,47.79
2018-08-16T19:36:12.799Z,47.71
2018-08-16T19:38:39.137Z,48.12
2018-08-16T19:41:05.447Z,48.35
2018-08-16T19:43:31.778Z,48.52
2018-08-16T19:45:58.101Z,48.69
2018-08-16T19:48:24.504Z,48.72
2018-08-16T19:50:50.731Z,49.03
2018-08-16T19:53:17.045Z,49.77
2018-08-16T19:55:43.389Z,50.20
2018-08-16T19:58:09.741Z,50.65
2018-08-16T20:00:36.043Z,49.92
2018-08-16T20:03:02.443Z,49.92
2018-08-16T20:05:28.714Z,50.81
2018-08-16T20:07:55.068Z,50.68
2018-08-16T20:10:21.390Z,51.00
2018-08-16T20:12:47.699Z,51.18
2018-08-16T20:15:14.002Z,50.96
2018-08-16T20:17:40.371Z,50.73
2018-08-16T20:20:06.639Z,51.08
2018-08-16T20:22:32.951Z,51.34
2018-08-16T20:24:59.325Z,51.88
2018-08-16T20:27:25.585Z,51.42
2018-08-16T20:29:51.910Z,51.00
2018-08-16T20:32:18.220Z,50.93
2018-08-16T20:34:44.528Z,51.64
2018-08-16T20:37:10.840Z,52.04
2018-08-16T20:39:37.149Z,52.43
2018-08-16T20:42:03.589Z,52.10
2018-08-16T20:44:29.764Z,51.82
2018-08-16T20:46:56.074Z,51.82
2018-08-16T20:49:22.403Z,52.31
2018-08-16T20:51:48.712Z,53.21
2018-08-16T20:54:15.043Z,53.38
2018-08-16T20:56:41.355Z,53.45
2018-08-16T20:59:07.666Z,53.86
2018-08-16T21:01:34.012Z,54.28
2018-08-16T21:04:00.329Z,54.77
2018-08-16T21:06:26.638Z,55.12
2018-08-16T21:08:52.950Z,55.29
2018-08-16T21:11:19.337Z,54.95
2018-08-16T21:13:45.647Z,55.40
2018-08-16T21:16:11.971Z,56.03
2018-08-16T21:18:38.287Z,56.21
2018-08-16T21:21:04.597Z,55.98
2018-08-16T21:23:30.911Z,56.47
2018-08-16T21:25:57.232Z,56.58
2018-08-16T21:28:23.547Z,56.43
2018-08-16T21:30:49.896Z,56.47
2018-08-16T21:33:16.206Z,56.61
2018-08-16T21:35:42.554Z,56.95
2018-08-16T21:38:08.868Z,56.78
2018-08-16T21:40:35.175Z,57.30
2018-08-16T21:43:01.529Z,57.23
2018-08-16T21:45:27.842Z,57.48
2018-08-16T21:47:54.195Z,57.64
2018-08-16T21:50:20.503Z,57.02
2018-08-16T21:52:46.824Z,56.97
2018-08-16T21:55:13.135Z,57.43
2018-08-16T21:57:39.441Z,57.95
2018-08-16T22:00:05.795Z,58.04
2018-08-16T22:02:32.144Z,57.54
2018-08-16T22:04:58.508Z,58.08
2018-08-16T22:07:24.821Z,58.21
2018-08-16T22:09:51.191Z,57.92
2018-08-16T22:12:17.504Z,57.78
2018-08-16T22:14:43.816Z,57.51
2018-08-16T22:17:10.128Z,57.42
2018-08-16T22:19:36.447Z,57.78
2018-08-16T22:22:02.756Z,57.59
2018-08-16T22:24:29.066Z,56.49
2018-08-16T22:26:55.387Z,56.55
2018-08-16T22:29:21.700Z,57.09
2018-08-16T22:31:48.014Z,56.85
2018-08-16T22:34:14.324Z,57.42
2018-08-16T22:36:40.746Z,56.96
2018-08-16T22:39:06.958Z,57.16
2018-08-16T22:41:33.275Z,57.95
2018-08-16T22:43:59.592Z,58.64
2018-08-16T22:46:25.923Z,59.12
2018-08-16T22:48:52.284Z,59.08
2018-08-16T22:51:18.597Z,58.78
2018-08-16T22:53:44.908Z,59.60
2018-08-16T22:56:11.217Z,59.29
2018-08-16T22:58:37.577Z,58.80
2018-08-16T23:01:03.884Z,58.92
2018-08-16T23:03:30.192Z,59.42
2018-08-16T23:05:56.501Z,59.91
2018-08-16T23:08:22.817Z,59.96
2018-08-16T23:10:49.130Z,59.13
2018-08-16T23:13:15.442Z,59.25
2018-08-16T23:15:41.755Z,57.90
2018-08-16T23:18:08.072Z,58.20
2018-08-16T23:20:34.385Z,60.32
2018-08-16T23:23:00.692Z,62.48
2018-08-16T23:25:27.007Z,62.64
2018-08-16T23:27:53.315Z,61.80
2018-08-16T23:30:19.632Z,61.34
2018-08-16T23:32:45.941Z,61.47
2018-08-16T23:35:12.246Z,61.86
2018-08-16T23:37:38.554Z,62.03
2018-08-16T23:40:04.905Z,60.82
2018-08-16T23:42:31.229Z,61.21
2018-08-16T23:44:57.535Z,62.30
2018-08-16T23:47:23.899Z,62.50
2018-08-16T23:49:50.205Z,62.70
2018-08-16T23:52:16.512Z,63.14
2018-08-16T23:54:42.824Z,62.61
2018-08-16T23:57:09.179Z,61.75
2018-08-16T23:59:35.453Z,60.83
